createdAt,value
2018-11-20T00:03:59.877Z,8.15
2018-11-20T00:06:27.199Z,8.28
2018-11-20T00:11:24.332Z,11.68
2018-11-20T00:14:15.633Z,10.48
2018-11-20T00:19:17.577Z,8.93
2018-11-20T00:21:47.730Z,10.38
2018-11-20T00:24:23.863Z,8.53
2018-11-20T00:26:51.905Z,11.22
2018-11-20T00:36:50.168Z,12.37
2018-11-20T00:39:20.340Z,11.30
2018-11-20T00:44:17.233Z,10.28
2018-11-20T00:49:15.977Z,11.10
2018-11-20T00:54:14.837Z,10.93
2018-11-20T00:59:18.515Z,13.25
2018-11-20T01:04:19.308Z,12.13
2018-11-20T01:06:49.364Z,11.88
2018-11-20T01:09:24.992Z,12.10
2018-11-20T01:14:16.974Z,11.35
2018-11-20T01:19:18.263Z,11.80
2018-11-20T01:24:19.836Z,11.70
2018-11-20T01:29:18.929Z,13.22
2018-11-20T01:39:27.683Z,13.53
2018-11-20T01:44:28.461Z,12.25
2018-11-20T01:52:39.332Z,12.93
2018-11-20T01:57:37.529Z,14.33
2018-11-20T02:02:37.082Z,14.10
2018-11-20T02:07:36.587Z,13.03
2018-11-20T02:12:36.376Z,14.63
2018-11-20T02:20:02.893Z,14.35
2018-11-20T02:27:33.001Z,15.58
2018-11-20T02:32:47.104Z,14.73
2018-11-20T02:37:47.151Z,14.50
2018-11-20T02:40:14.512Z,14.33
2018-11-20T02:45:13.027Z,16.25
2018-11-20T02:50:09.668Z,14.60
2018-11-20T02:52:37.885Z,15.68
2018-11-20T02:57:35.357Z,15.88
2018-11-20T03:02:32.118Z,14.50
2018-11-20T03:18:05.774Z,14.45
2018-11-20T03:23:14.893Z,14.43
2018-11-20T03:51:47.173Z,14.53
2018-11-20T03:54:17.038Z,13.65
2018-11-20T03:59:14.743Z,13.85
2018-11-20T04:09:12.185Z,14.78
2018-11-20T04:14:10.375Z,14.00
2018-11-20T04:19:10.145Z,15.43
2018-11-20T04:25:34.955Z,14.87
2018-11-20T04:30:40.512Z,14.55
2018-11-20T04:36:24.058Z,12.75
2018-11-20T04:38:50.964Z,13.98
2018-11-20T04:46:18.204Z,14.53
2018-11-20T04:51:37.955Z,13.15
2018-11-20T04:56:35.225Z,14.47
2018-11-20T05:01:34.601Z,14.00
2018-11-20T05:04:04.666Z,14.03
2018-11-20T05:09:03.451Z,13.18
2018-11-20T05:19:27.515Z,14.03
2018-11-20T05:24:25.883Z,13.05
2018-11-20T05:34:54.988Z,14.98
2018-11-20T05:37:24.242Z,16.40
2018-11-20T05:47:54.361Z,14.55
2018-11-20T05:50:24.251Z,13.75
2018-11-20T05:56:14.916Z,14.60
2018-11-20T05:58:42.437Z,14.85
2018-11-20T06:01:25.479Z,13.68
2018-11-20T06:06:33.731Z,16.23
2018-11-20T06:09:03.565Z,13.93
2018-11-20T06:14:01.556Z,15.08
2018-11-20T06:19:05.803Z,15.50
2018-11-20T06:24:05.035Z,15.28
2018-11-20T06:29:15.496Z,16.80
2018-11-20T06:36:41.156Z,15.98
2018-11-20T06:41:38.016Z,15.85
2018-11-20T06:49:11.132Z,14.70
2018-11-20T06:56:42.543Z,16.20
2018-11-20T06:59:12.548Z,15.63
2018-11-20T07:04:13.249Z,14.85
2018-11-20T07:09:11.002Z,16.97
2018-11-20T07:16:46.791Z,14.68
2018-11-20T07:19:16.843Z,14.90
2018-11-20T07:24:16.731Z,16.12
2018-11-20T07:29:14.504Z,16.07
2018-11-20T07:34:19.328Z,14.85
2018-11-20T07:41:47.705Z,15.23
2018-11-20T07:46:44.929Z,14.18
2018-11-20T07:51:41.463Z,15.95
2018-11-20T07:56:39.815Z,14.65
2018-11-20T08:01:38.401Z,15.85
2018-11-20T08:06:36.075Z,15.70
2018-11-20T08:11:35.282Z,16.20
2018-11-20T08:19:09.075Z,16.35
2018-11-20T08:21:37.434Z,14.40
2018-11-20T08:29:12.860Z,17.25
2018-11-20T08:31:42.889Z,15.58
2018-11-20T08:36:44.118Z,15.95
2018-11-20T08:41:43.698Z,17.50
2018-11-20T08:44:13.525Z,15.20
2018-11-20T08:46:43.519Z,15.88
2018-11-20T08:51:42.389Z,15.68
2018-11-20T08:56:40.066Z,15.58
2018-11-20T09:01:40.911Z,14.90
2018-11-20T09:06:40.630Z,15.48
2018-11-20T09:11:57.812Z,17.62
2018-11-20T09:16:56.963Z,18.25
2018-11-20T09:22:02.035Z,16.23
2018-11-20T09:24:30.555Z,16.87
2018-11-20T09:29:29.923Z,16.67
2018-11-20T09:34:31.795Z,16.45
2018-11-20T09:39:31.218Z,16.10
2018-11-20T09:47:03.903Z,18.45
2018-11-20T09:49:33.535Z,16.45
2018-11-20T09:57:02.512Z,17.42
2018-11-20T10:02:02.151Z,15.90
2018-11-20T10:04:32.472Z,17.85
2018-11-20T10:09:31.606Z,17.50
2018-11-20T10:14:31.262Z,15.30
2018-11-20T10:19:30.343Z,18.37
2018-11-20T10:24:30.164Z,16.40
2018-11-20T10:29:29.632Z,17.62
2018-11-20T10:34:30.816Z,16.25
2018-11-20T10:39:28.569Z,15.98
2018-11-20T10:44:27.881Z,18.27
2018-11-20T10:49:26.860Z,16.70
2018-11-20T10:56:56.651Z,18.15
2018-11-20T10:59:26.498Z,15.35
2018-11-20T11:04:23.971Z,16.70
2018-11-20T11:09:53.336Z,18.23
2018-11-20T11:14:52.040Z,16.02
2018-11-20T11:19:52.116Z,16.62
2018-11-20T11:27:22.599Z,16.40
2018-11-20T11:29:52.333Z,18.45
2018-11-20T11:40:30.773Z,16.65
2018-11-20T11:43:38.113Z,18.05
2018-11-20T11:46:45.423Z,16.65
2018-11-20T11:49:52.826Z,17.20
2018-11-20T11:52:41.450Z,16.82
2018-11-20T11:55:48.638Z,16.67
2018-11-20T11:58:36.934Z,17.60
2018-11-20T12:04:50.713Z,16.60
2018-11-20T12:07:57.934Z,18.17
2018-11-20T12:11:05.183Z,16.57
2018-11-20T12:14:12.423Z,18.12
2018-11-20T12:17:00.659Z,17.73
2018-11-20T12:19:48.899Z,15.65
2018-11-20T12:22:56.133Z,18.35
2018-11-20T12:26:03.394Z,19.27
2018-11-20T12:29:10.651Z,19.42
2018-11-20T12:32:20.603Z,16.65
2018-11-20T12:35:33.175Z,17.73
2018-11-20T12:38:35.105Z,19.17
2018-11-20T12:41:23.346Z,22.25
2018-11-20T12:44:05.950Z,17.87
2018-11-20T12:47:15.141Z,18.42
2018-11-20T12:49:51.948Z,17.35
2018-11-20T12:52:38.261Z,18.75
2018-11-20T12:55:07.864Z,18.02
2018-11-20T13:00:09.387Z,20.10
2018-11-20T13:05:09.467Z,17.90
2018-11-20T13:10:07.040Z,19.10
2018-11-20T13:17:35.885Z,18.35
2018-11-20T13:22:31.159Z,19.02
2018-11-20T13:27:29.255Z,19.00
2018-11-20T13:32:32.570Z,18.95
2018-11-20T13:37:51.842Z,20.48
2018-11-20T13:42:51.845Z,18.55
2018-11-20T13:47:47.967Z,17.23
2018-11-20T13:52:44.560Z,17.90
2018-11-20T13:58:20.741Z,18.17
2018-11-20T14:03:16.952Z,16.95
2018-11-20T14:08:13.464Z,16.50
2018-11-20T14:13:12.745Z,16.30
2018-11-20T14:18:10.613Z,15.25
2018-11-20T14:23:09.872Z,15.43
2018-11-20T14:28:08.767Z,15.20
2018-11-20T14:33:05.811Z,13.88
2018-11-20T14:38:05.779Z,14.78
2018-11-20T14:43:01.835Z,12.63
2018-11-20T14:48:37.979Z,11.78
2018-11-20T14:53:35.530Z,13.05
2018-11-20T14:58:34.993Z,11.53
2018-11-20T15:03:34.567Z,10.80
2018-11-20T15:06:15.204Z,11.35
2018-11-20T15:08:45.459Z,10.00
2018-11-20T15:16:15.951Z,10.18
2018-11-20T15:18:46.081Z,9.45
2018-11-20T15:21:35.680Z,9.28
2018-11-20T15:24:05.412Z,9.73
2018-11-20T15:29:04.431Z,8.93
2018-11-20T15:34:03.423Z,8.53
2018-11-20T15:39:03.971Z,9.60
2018-11-20T15:44:03.006Z,9.10
2018-11-20T15:49:00.253Z,8.83
2018-11-20T15:57:07.306Z,8.83
2018-11-20T15:59:37.274Z,9.00
2018-11-20T16:04:36.069Z,8.75
2018-11-20T16:09:32.892Z,8.35
2018-11-20T16:17:40.684Z,9.38
2018-11-20T16:20:08.382Z,9.83
2018-11-20T16:25:11.206Z,9.13
2018-11-20T16:30:10.871Z,9.65
2018-11-20T16:35:10.288Z,8.95
2018-11-20T16:40:08.112Z,9.08
2018-11-20T16:45:07.115Z,8.90
2018-11-20T16:50:05.086Z,9.50
2018-11-20T16:55:05.878Z,10.35
2018-11-20T17:00:00.231Z,10.25
2018-11-20T17:02:30.621Z,9.33
2018-11-20T17:07:27.777Z,10.80
2018-11-20T17:12:28.534Z,9.28
2018-11-20T17:17:25.329Z,9.35
2018-11-20T17:24:58.832Z,10.60
2018-11-20T17:30:01.072Z,10.85
2018-11-20T17:32:30.776Z,10.95
2018-11-20T17:37:30.332Z,10.85
2018-11-20T17:42:28.302Z,11.00
2018-11-20T17:47:25.557Z,11.03
2018-11-20T17:52:24.150Z,11.08
2018-11-20T17:57:21.892Z,10.55
2018-11-20T18:02:18.774Z,10.93
2018-11-20T18:07:17.855Z,10.80
2018-11-20T18:12:17.852Z,11.33
2018-11-20T18:17:20.174Z,10.68
2018-11-20T18:22:17.425Z,11.33
2018-11-20T18:27:19.005Z,10.40
2018-11-20T18:32:15.205Z,10.00
2018-11-20T18:37:16.091Z,10.40
2018-11-20T18:42:16.089Z,9.88
2018-11-20T18:47:13.085Z,11.93
2018-11-20T18:54:41.185Z,10.80
2018-11-20T18:59:37.993Z,10.60
2018-11-20T19:04:37.773Z,12.53
2018-11-20T19:09:34.903Z,12.68
2018-11-20T19:14:31.787Z,13.43
2018-11-20T19:19:29.848Z,13.60
2018-11-20T19:24:35.733Z,13.78
2018-11-20T19:29:33.580Z,13.90
2018-11-20T19:34:31.554Z,12.75
2018-11-20T19:39:37.255Z,14.03
2018-11-20T19:44:36.537Z,13.28
2018-11-20T19:52:12.085Z,12.58
2018-11-20T19:57:18.024Z,13.60
2018-11-20T20:00:18.460Z,12.53
2018-11-20T20:05:15.464Z,12.05
2018-11-20T20:10:18.613Z,12.45
2018-11-20T20:15:13.191Z,12.37
2018-11-20T20:23:08.048Z,13.08
2018-11-20T20:25:37.761Z,11.83
2018-11-20T20:33:09.992Z,13.62
2018-11-20T20:35:37.010Z,12.63
2018-11-20T20:40:52.687Z,13.03
2018-11-20T20:45:50.953Z,13.35
2018-11-20T20:58:35.723Z,13.28
2018-11-20T21:01:02.563Z,13.62
2018-11-20T21:03:51.910Z,13.60
2018-11-20T21:11:26.929Z,13.35
2018-11-20T21:16:25.553Z,15.00
2018-11-20T21:18:55.858Z,13.75
2018-11-20T21:23:55.049Z,12.60
2018-11-20T21:28:54.405Z,12.70
2018-11-20T21:31:24.292Z,12.30
2018-11-20T21:36:23.608Z,13.85
2018-11-20T21:43:56.001Z,12.82
2018-11-20T21:46:26.071Z,12.23
2018-11-20T21:48:55.919Z,13.75
2018-11-20T21:53:53.765Z,13.70
2018-11-20T21:58:50.674Z,13.80
2018-11-20T22:03:50.098Z,13.60
2018-11-20T22:06:19.840Z,14.85
2018-11-20T22:11:19.327Z,14.03
2018-11-20T22:17:20.899Z,13.40
2018-11-20T22:20:07.026Z,14.25
2018-11-20T22:23:09.644Z,13.50
2018-11-20T22:25:54.719Z,13.53
2018-11-20T22:28:40.702Z,13.78
2018-11-20T22:31:34.357Z,13.58
2018-11-20T22:34:22.101Z,13.45
2018-11-20T22:37:12.554Z,15.38
2018-11-20T22:39:58.335Z,17.23
2018-11-20T22:42:45.839Z,23.10
2018-11-20T22:45:26.321Z,13.88
2018-11-20T22:48:19.606Z,15.65
2018-11-20T22:51:05.694Z,13.55
2018-11-20T22:53:51.800Z,15.40
2018-11-20T22:56:45.302Z,21.90
2018-11-20T22:59:19.943Z,16.75
2018-11-20T23:02:06.226Z,14.63
2018-11-20T23:04:54.317Z,14.33
2018-11-20T23:07:41.368Z,13.53
2018-11-20T23:10:10.020Z,12.55
2018-11-20T23:12:38.353Z,15.98
2018-11-20T23:15:09.974Z,16.67
2018-11-20T23:17:38.618Z,15.43
2018-11-20T23:20:07.929Z,14.60
2018-11-20T23:22:36.722Z,14.90
2018-11-20T23:25:06.083Z,13.65
2018-11-20T23:27:34.795Z,12.78
2018-11-20T23:30:03.506Z,17.40
2018-11-20T23:32:31.732Z,12.63
2018-11-20T23:34:59.955Z,15.40
2018-11-20T23:37:28.173Z,13.43
2018-11-20T23:39:56.482Z,14.63
2018-11-20T23:42:25.130Z,15.85
2018-11-20T23:44:53.390Z,15.08
2018-11-20T23:47:21.610Z,13.45
2018-11-20T23:49:49.940Z,15.05
2018-11-20T23:52:18.556Z,16.80
2018-11-20T23:54:47.131Z,18.80
2018-11-20T23:57:15.387Z,18.32
2018-11-20T23:59:43.870Z,18.15
